sensor_id;sensor_type;location;lat;lon;timestamp;pressure;altitude;pressure_sealevel;temperature;humidity
12775;BME280;6451;42.630;23.382;2023-12-22T00:01:30;92893.81;;;1.73;100.00
12775;BME280;6451;42.630;23.382;2023-12-22T00:03:57;92916.06;;;1.86;100.00
12775;BME280;6451;42.630;23.382;2023-12-22T00:06:23;92870.19;;;1.75;100.00
12775;BME280;6451;42.630;23.382;2023-12-22T00:08:50;92878.09;;;1.92;100.00
12775;BME280;6451;42.630;23.382;2023-12-22T00:11:18;92884.50;;;2.00;100.00
12775;BME280;6451;42.630;23.382;2023-12-22T00:13:45;92907.03;;;2.11;100.00
12775;BME280;6451;42.630;23.382;2023-12-22T00:16:12;92890.56;;;2.21;100.00
12775;BME280;6451;42.630;23.382;2023-12-22T00:18:39;92893.38;;;2.25;100.00
12775;BME280;6451;42.630;23.382;2023-12-22T00:21:09;92879.72;;;2.39;100.00
12775;BME280;6451;42.630;23.382;2023-12-22T00:23:36;92875.44;;;2.26;100.00
12775;BME280;6451;42.630;23.382;2023-12-22T00:26:03;92872.63;;;2.22;100.00
12775;BME280;6451;42.630;23.382;2023-12-22T00:28:31;92858.63;;;2.04;100.00
12775;BME280;6451;42.630;23.382;2023-12-22T00:30:58;92866.56;;;2.13;100.00
12775;BME280;6451;42.630;23.382;2023-12-22T00:33:25;92842.25;;;2.06;100.00
12775;BME280;6451;42.630;23.382;2023-12-22T00:35:52;92831.63;;;1.97;100.00
12775;BME280;6451;42.630;23.382;2023-12-22T00:38:18;92849.91;;;1.95;100.00
12775;BME280;6451;42.630;23.382;2023-12-22T00:40:46;92856.13;;;2.20;100.00
12775;BME280;6451;42.630;23.382;2023-12-22T00:43:12;92843.66;;;2.24;100.00
12775;BME280;6451;42.630;23.382;2023-12-22T00:45:41;92825.47;;;2.30;100.00
12775;BME280;6451;42.630;23.382;2023-12-22T00:48:07;92822.97;;;2.00;100.00
12775;BME280;6451;42.630;23.382;2023-12-22T00:50:34;92823.03;;;2.37;100.00
12775;BME280;6451;42.630;23.382;2023-12-22T00:53:01;92832.28;;;2.27;100.00
12775;BME280;6451;42.630;23.382;2023-12-22T00:55:28;92801.88;;;2.44;100.00
12775;BME280;6451;42.630;23.382;2023-12-22T00:57:56;92833.69;;;2.58;100.00
12775;BME280;6451;42.630;23.382;2023-12-22T01:00:22;92817.63;;;2.82;100.00
12775;BME280;6451;42.630;23.382;2023-12-22T01:02:51;92818.97;;;2.88;100.00
12775;BME280;6451;42.630;23.382;2023-12-22T01:05:17;92792.88;;;2.85;100.00
12775;BME280;6451;42.630;23.382;2023-12-22T01:07:45;92799.56;;;2.79;100.00
12775;BME280;6451;42.630;23.382;2023-12-22T01:10:12;92808.03;;;2.81;100.00
12775;BME280;6451;42.630;23.382;2023-12-22T01:12:39;92687.63;;;1.75;100.00
12775;BME280;6451;42.630;23.382;2023-12-22T01:15:07;92854.03;;;2.95;100.00
12775;BME280;6451;42.630;23.382;2023-12-22T01:17:33;92837.50;;;3.05;100.00
12775;BME280;6451;42.630;23.382;2023-12-22T01:20:02;92825.13;;;3.01;100.00
12775;BME280;6451;42.630;23.382;2023-12-22T01:22:29;92839.41;;;3.17;100.00
12775;BME280;6451;42.630;23.382;2023-12-22T01:24:57;92812.38;;;3.10;100.00
12775;BME280;6451;42.630;23.382;2023-12-22T01:27:24;92835.47;;;3.27;100.00
12775;BME280;6451;42.630;23.382;2023-12-22T01:29:51;92781.00;;;3.11;100.00
12775;BME280;6451;42.630;23.382;2023-12-22T01:32:18;92830.31;;;3.46;100.00
12775;BME280;6451;42.630;23.382;2023-12-22T01:34:45;92810.72;;;3.58;100.00
12775;BME280;6451;42.630;23.382;2023-12-22T01:37:13;92830.84;;;3.52;100.00
12775;BME280;6451;42.630;23.382;2023-12-22T01:39:41;92798.94;;;3.34;100.00
12775;BME280;6451;42.630;23.382;2023-12-22T01:42:07;92808.53;;;3.35;100.00
12775;BME280;6451;42.630;23.382;2023-12-22T01:44:34;92808.38;;;3.56;100.00
12775;BME280;6451;42.630;23.382;2023-12-22T01:47:02;92804.91;;;3.68;100.00
12775;BME280;6451;42.630;23.382;2023-12-22T01:49:29;92770.34;;;3.39;100.00
12775;BME280;6451;42.630;23.382;2023-12-22T01:51:56;92779.22;;;3.55;100.00
12775;BME280;6451;42.630;23.382;2023-12-22T01:54:25;92768.44;;;3.67;100.00
12775;BME280;6451;42.630;23.382;2023-12-22T01:56:52;92752.22;;;3.48;100.00
12775;BME280;6451;42.630;23.382;2023-12-22T01:59:19;92744.78;;;3.69;100.00
12775;BME280;6451;42.630;23.382;2023-12-22T02:01:45;92767.78;;;3.70;100.00
12775;BME280;6451;42.630;23.382;2023-12-22T02:04:14;92777.09;;;3.88;100.00
12775;BME280;6451;42.630;23.382;2023-12-22T02:06:41;92751.94;;;3.65;100.00
12775;BME280;6451;42.630;23.382;2023-12-22T02:09:10;92795.88;;;3.88;100.00
12775;BME280;6451;42.630;23.382;2023-12-22T02:11:39;92684.38;;;3.31;100.00
12775;BME280;6451;42.630;23.382;2023-12-22T02:14:06;92771.31;;;3.74;100.00
12775;BME280;6451;42.630;23.382;2023-12-22T02:16:39;92754.31;;;3.82;100.00
12775;BME280;6451;42.630;23.382;2023-12-22T02:19:18;92727.34;;;3.35;100.00
12775;BME280;6451;42.630;23.382;2023-12-22T02:22:04;92783.97;;;3.74;100.00
12775;BME280;6451;42.630;23.382;2023-12-22T02:24:32;92770.84;;;3.84;100.00
12775;BME280;6451;42.630;23.382;2023-12-22T02:27:03;92776.41;;;3.92;100.00
12775;BME280;6451;42.630;23.382;2023-12-22T02:29:32;92772.22;;;3.78;100.00
12775;BME280;6451;42.630;23.382;2023-12-22T02:32:06;92781.13;;;3.82;100.00
12775;BME280;6451;42.630;23.382;2023-12-22T02:34:35;92784.81;;;4.06;100.00
12775;BME280;6451;42.630;23.382;2023-12-22T02:37:05;92776.53;;;3.83;100.00
12775;BME280;6451;42.630;23.382;2023-12-22T02:39:34;92777.94;;;3.77;100.00
12775;BME280;6451;42.630;23.382;2023-12-22T02:42:02;92764.94;;;3.51;100.00
12775;BME280;6451;42.630;23.382;2023-12-22T02:44:30;92757.53;;;3.60;100.00
12775;BME280;6451;42.630;23.382;2023-12-22T02:46:57;92755.03;;;3.67;100.00
12775;BME280;6451;42.630;23.382;2023-12-22T02:49:24;92756.72;;;3.72;100.00
12775;BME280;6451;42.630;23.382;2023-12-22T02:51:50;92757.22;;;3.49;100.00
12775;BME280;6451;42.630;23.382;2023-12-22T02:54:17;92751.69;;;3.70;100.00
12775;BME280;6451;42.630;23.382;2023-12-22T02:56:47;92702.38;;;3.75;100.00
12775;BME280;6451;42.630;23.382;2023-12-22T02:59:14;92733.44;;;3.48;100.00
12775;BME280;6451;42.630;23.382;2023-12-22T03:01:41;92741.63;;;3.67;100.00
12775;BME280;6451;42.630;23.382;2023-12-22T03:04:07;92712.09;;;3.51;100.00
12775;BME280;6451;42.630;23.382;2023-12-22T03:06:34;92718.66;;;3.82;100.00
12775;BME280;6451;42.630;23.382;2023-12-22T03:09:01;92699.03;;;3.50;100.00
12775;BME280;6451;42.630;23.382;2023-12-22T03:11:29;92735.56;;;3.54;100.00
12775;BME280;6451;42.630;23.382;2023-12-22T03:13:57;92729.84;;;3.84;100.00
12775;BME280;6451;42.630;23.382;2023-12-22T03:16:24;92709.91;;;3.41;100.00
12775;BME280;6451;42.630;23.382;2023-12-22T03:18:51;92663.91;;;2.71;100.00
12775;BME280;6451;42.630;23.382;2023-12-22T03:21:18;92692.66;;;2.74;100.00
12775;BME280;6451;42.630;23.382;2023-12-22T03:23:45;92695.03;;;2.51;100.00
12775;BME280;6451;42.630;23.382;2023-12-22T03:26:12;92755.03;;;2.74;100.00
12775;BME280;6451;42.630;23.382;2023-12-22T03:28:39;92724.94;;;2.53;100.00
12775;BME280;6451;42.630;23.382;2023-12-22T03:31:07;92726.16;;;2.43;100.00
12775;BME280;6451;42.630;23.382;2023-12-22T03:33:34;92741.66;;;2.50;100.00
12775;BME280;6451;42.630;23.382;2023-12-22T03:36:01;92680.88;;;2.14;100.00
12775;BME280;6451;42.630;23.382;2023-12-22T03:38:28;92680.78;;;2.10;100.00
12775;BME280;6451;42.630;23.382;2023-12-22T03:40:55;92710.34;;;2.38;100.00
12775;BME280;6451;42.630;23.382;2023-12-22T03:43:22;92739.31;;;2.48;100.00
12775;BME280;6451;42.630;23.382;2023-12-22T03:45:49;92734.28;;;2.59;100.00
12775;BME280;6451;42.630;23.382;2023-12-22T03:48:17;92708.19;;;2.56;100.00
12775;BME280;6451;42.630;23.382;2023-12-22T03:50:44;92730.41;;;2.69;100.00
12775;BME280;6451;42.630;23.382;2023-12-22T03:53:11;92739.44;;;2.76;100.00
12775;BME280;6451;42.630;23.382;2023-12-22T03:55:38;92701.50;;;2.62;100.00
12775;BME280;6451;42.630;23.382;2023-12-22T03:58:04;92715.75;;;2.78;100.00
12775;BME280;6451;42.630;23.382;2023-12-22T04:00:32;92731.50;;;3.20;100.00
12775;BME280;6451;42.630;23.382;2023-12-22T04:02:59;92711.13;;;3.03;100.00
12775;BME280;6451;42.630;23.382;2023-12-22T04:05:28;92724.63;;;3.47;100.00
12775;BME280;6451;42.630;23.382;2023-12-22T04:07:55;92742.13;;;3.57;100.00
12775;BME280;6451;42.630;23.382;2023-12-22T04:10:22;92734.91;;;3.73;100.00
12775;BME280;6451;42.630;23.382;2023-12-22T04:12:48;92727.63;;;3.74;100.00
12775;BME280;6451;42.630;23.382;2023-12-22T04:15:15;92747.41;;;3.97;100.00
12775;BME280;6451;42.630;23.382;2023-12-22T04:17:42;92749.06;;;4.02;100.00
12775;BME280;6451;42.630;23.382;2023-12-22T04:20:09;92743.16;;;3.80;100.00
12775;BME280;6451;42.630;23.382;2023-12-22T04:22:38;92705.00;;;3.59;100.00
12775;BME280;6451;42.630;23.382;2023-12-22T04:25:05;92738.00;;;4.03;100.00
12775;BME280;6451;42.630;23.382;2023-12-22T04:27:33;92718.25;;;3.96;100.00
12775;BME280;6451;42.630;23.382;2023-12-22T04:30:00;92719.16;;;4.15;100.00
12775;BME280;6451;42.630;23.382;2023-12-22T04:32:27;92712.38;;;4.06;100.00
12775;BME280;6451;42.630;23.382;2023-12-22T04:34:54;92739.31;;;4.09;100.00
12775;BME280;6451;42.630;23.382;2023-12-22T04:37:22;92718.69;;;4.13;100.00
12775;BME280;6451;42.630;23.382;2023-12-22T04:39:51;92724.81;;;3.98;100.00
12775;BME280;6451;42.630;23.382;2023-12-22T04:42:18;92723.22;;;4.09;100.00
12775;BME280;6451;42.630;23.382;2023-12-22T04:44:46;92729.16;;;4.03;100.00
12775;BME280;6451;42.630;23.382;2023-12-22T04:47:14;92705.97;;;4.26;100.00
12775;BME280;6451;42.630;23.382;2023-12-22T04:49:41;92689.06;;;3.78;100.00
12775;BME280;6451;42.630;23.382;2023-12-22T04:52:07;92703.81;;;4.16;100.00
12775;BME280;6451;42.630;23.382;2023-12-22T04:54:34;92696.44;;;4.13;100.00
12775;BME280;6451;42.630;23.382;2023-12-22T04:57:03;92704.00;;;4.23;100.00
12775;BME280;6451;42.630;23.382;2023-12-22T04:59:30;92715.50;;;4.39;100.00
12775;BME280;6451;42.630;23.382;2023-12-22T05:01:57;92717.41;;;4.23;100.00
12775;BME280;6451;42.630;23.382;2023-12-22T05:04:24;92701.91;;;4.48;100.00
12775;BME280;6451;42.630;23.382;2023-12-22T05:06:51;92704.78;;;4.39;100.00
12775;BME280;6451;42.630;23.382;2023-12-22T05:09:18;92689.88;;;4.42;100.00
12775;BME280;6451;42.630;23.382;2023-12-22T05:11:45;92668.13;;;3.84;100.00
12775;BME280;6451;42.630;23.382;2023-12-22T05:14:13;92662.97;;;4.07;100.00
12775;BME280;6451;42.630;23.382;2023-12-22T05:16:40;92684.06;;;4.08;100.00
12775;BME280;6451;42.630;23.382;2023-12-22T05:19:07;92667.44;;;4.03;100.00
12775;BME280;6451;42.630;23.382;2023-12-22T05:21:34;92684.47;;;3.79;100.00
12775;BME280;6451;42.630;23.382;2023-12-22T05:24:01;92697.22;;;4.13;100.00
12775;BME280;6451;42.630;23.382;2023-12-22T05:26:28;92687.00;;;4.19;100.00
12775;BME280;6451;42.630;23.382;2023-12-22T05:28:55;92686.19;;;3.71;100.00
12775;BME280;6451;42.630;23.382;2023-12-22T05:31:24;92687.78;;;4.04;100.00
12775;BME280;6451;42.630;23.382;2023-12-22T05:33:51;92707.88;;;3.94;100.00
12775;BME280;6451;42.630;23.382;2023-12-22T05:36:18;92676.84;;;3.65;100.00
12775;BME280;6451;42.630;23.382;2023-12-22T05:38:44;92698.44;;;4.00;100.00
12775;BME280;6451;42.630;23.382;2023-12-22T05:41:13;92713.75;;;4.00;100.00
12775;BME280;6451;42.630;23.382;2023-12-22T05:43:40;92597.66;;;3.40;100.00
12775;BME280;6451;42.630;23.382;2023-12-22T05:46:08;92677.66;;;3.97;100.00
12775;BME280;6451;42.630;23.382;2023-12-22T05:48:36;92707.78;;;4.06;100.00
12775;BME280;6451;42.630;23.382;2023-12-22T05:51:03;92660.41;;;3.82;100.00
12775;BME280;6451;42.630;23.382;2023-12-22T05:53:32;92674.47;;;4.07;100.00
12775;BME280;6451;42.630;23.382;2023-12-22T05:56:00;92683.03;;;4.29;100.00
12775;BME280;6451;42.630;23.382;2023-12-22T05:58:25;92654.53;;;4.91;100.00
12775;BME280;6451;42.630;23.382;2023-12-22T06:00:52;92669.06;;;4.55;100.00
12775;BME280;6451;42.630;23.382;2023-12-22T06:03:20;92690.22;;;4.25;100.00
12775;BME280;6451;42.630;23.382;2023-12-22T06:05:49;92688.56;;;4.36;100.00
12775;BME280;6451;42.630;23.382;2023-12-22T06:08:15;92693.84;;;4.32;100.00
12775;BME280;6451;42.630;23.382;2023-12-22T06:10:42;92688.22;;;4.22;100.00
12775;BME280;6451;42.630;23.382;2023-12-22T06:13:11;92699.84;;;4.26;100.00
12775;BME280;6451;42.630;23.382;2023-12-22T06:15:37;92704.84;;;4.11;100.00
12775;BME280;6451;42.630;23.382;2023-12-22T06:18:04;92701.31;;;4.07;100.00
12775;BME280;6451;42.630;23.382;2023-12-22T06:20:31;92714.97;;;4.18;100.00
12775;BME280;6451;42.630;23.382;2023-12-22T06:22:59;92702.56;;;3.98;100.00
12775;BME280;6451;42.630;23.382;2023-12-22T06:25:26;92702.34;;;4.18;100.00
12775;BME280;6451;42.630;23.382;2023-12-22T06:27:53;92688.66;;;4.08;100.00
12775;BME280;6451;42.630;23.382;2023-12-22T06:30:20;92669.09;;;3.76;100.00
12775;BME280;6451;42.630;23.382;2023-12-22T06:32:47;92698.16;;;3.89;100.00
12775;BME280;6451;42.630;23.382;2023-12-22T06:35:14;92723.38;;;4.16;100.00
12775;BME280;6451;42.630;23.382;2023-12-22T06:37:40;92722.84;;;4.11;100.00
12775;BME280;6451;42.630;23.382;2023-12-22T06:40:10;92707.47;;;4.24;100.00
12775;BME280;6451;42.630;23.382;2023-12-22T06:42:37;92690.56;;;3.92;100.00
12775;BME280;6451;42.630;23.382;2023-12-22T06:45:04;92695.94;;;4.23;100.00
12775;BME280;6451;42.630;23.382;2023-12-22T06:47:31;92700.59;;;4.26;100.00
12775;BME280;6451;42.630;23.382;2023-12-22T06:49:59;92707.97;;;4.29;100.00
12775;BME280;6451;42.630;23.382;2023-12-22T06:52:25;92702.50;;;4.41;100.00
12775;BME280;6451;42.630;23.382;2023-12-22T06:54:52;92707.88;;;4.57;100.00
12775;BME280;6451;42.630;23.382;2023-12-22T06:57:20;92718.25;;;4.59;100.00
12775;BME280;6451;42.630;23.382;2023-12-22T06:59:47;92713.94;;;4.54;100.00
12775;BME280;6451;42.630;23.382;2023-12-22T07:02:15;92645.03;;;3.95;100.00
12775;BME280;6451;42.630;23.382;2023-12-22T07:05:02;92723.44;;;4.67;100.00
12775;BME280;6451;42.630;23.382;2023-12-22T07:07:32;92714.31;;;4.88;100.00
12775;BME280;6451;42.630;23.382;2023-12-22T07:09:59;92718.66;;;4.92;100.00
12775;BME280;6451;42.630;23.382;2023-12-22T07:12:27;92722.81;;;4.90;100.00
12775;BME280;6451;42.630;23.382;2023-12-22T07:14:54;92689.16;;;4.61;100.00
12775;BME280;6451;42.630;23.382;2023-12-22T07:17:21;92730.72;;;4.98;100.00
12775;BME280;6451;42.630;23.382;2023-12-22T07:19:48;92715.72;;;4.82;100.00
12775;BME280;6451;42.630;23.382;2023-12-22T07:22:17;92712.78;;;4.87;100.00
12775;BME280;6451;42.630;23.382;2023-12-22T07:24:44;92723.44;;;5.18;100.00
12775;BME280;6451;42.630;23.382;2023-12-22T07:27:11;92728.75;;;5.15;100.00
12775;BME280;6451;42.630;23.382;2023-12-22T07:29:39;92701.41;;;5.13;100.00
12775;BME280;6451;42.630;23.382;2023-12-22T07:32:06;92733.78;;;5.36;100.00
12775;BME280;6451;42.630;23.382;2023-12-22T07:34:33;92736.91;;;5.38;100.00
12775;BME280;6451;42.630;23.382;2023-12-22T07:37:01;92737.06;;;5.45;100.00
12775;BME280;6451;42.630;23.382;2023-12-22T07:39:28;92732.13;;;5.12;100.00
12775;BME280;6451;42.630;23.382;2023-12-22T07:41:54;92727.03;;;5.07;100.00
12775;BME280;6451;42.630;23.382;2023-12-22T07:44:21;92738.16;;;5.24;100.00
12775;BME280;6451;42.630;23.382;2023-12-22T07:46:57;92683.72;;;4.92;100.00
12775;BME280;6451;42.630;23.382;2023-12-22T07:49:25;92726.91;;;5.19;100.00
12775;BME280;6451;42.630;23.382;2023-12-22T07:51:54;92755.31;;;5.36;100.00
12775;BME280;6451;42.630;23.382;2023-12-22T07:54:21;92753.47;;;5.59;100.00
12775;BME280;6451;42.630;23.382;2023-12-22T07:56:49;92758.09;;;5.78;100.00
12775;BME280;6451;42.630;23.382;2023-12-22T07:59:16;92749.03;;;5.67;100.00
12775;BME280;6451;42.630;23.382;2023-12-22T08:01:43;92763.06;;;5.76;100.00
12775;BME280;6451;42.630;23.382;2023-12-22T08:04:11;92756.56;;;5.96;100.00
12775;BME280;6451;42.630;23.382;2023-12-22T08:06:38;92769.91;;;5.73;100.00
12775;BME280;6451;42.630;23.382;2023-12-22T08:09:05;92756.19;;;5.78;100.00
12775;BME280;6451;42.630;23.382;2023-12-22T08:11:32;92761.22;;;5.61;100.00
12775;BME280;6451;42.630;23.382;2023-12-22T08:13:59;92765.66;;;5.53;100.00
12775;BME280;6451;42.630;23.382;2023-12-22T08:16:27;92733.50;;;5.41;100.00
12775;BME280;6451;42.630;23.382;2023-12-22T08:18:53;92781.59;;;5.26;100.00
12775;BME280;6451;42.630;23.382;2023-12-22T08:21:22;92749.28;;;5.42;100.00
12775;BME280;6451;42.630;23.382;2023-12-22T08:23:49;92750.06;;;5.43;100.00
12775;BME280;6451;42.630;23.382;2023-12-22T08:26:16;92794.06;;;5.89;100.00
12775;BME280;6451;42.630;23.382;2023-12-22T08:28:45;92793.22;;;5.66;100.00
12775;BME280;6451;42.630;23.382;2023-12-22T08:31:11;92799.16;;;5.55;100.00
12775;BME280;6451;42.630;23.382;2023-12-22T08:33:38;92804.69;;;5.63;100.00
12775;BME280;6451;42.630;23.382;2023-12-22T08:36:08;92800.59;;;5.69;100.00
12775;BME280;6451;42.630;23.382;2023-12-22T08:38:37;92781.56;;;5.42;100.00
12775;BME280;6451;42.630;23.382;2023-12-22T08:41:06;92801.78;;;5.36;100.00
12775;BME280;6451;42.630;23.382;2023-12-22T08:43:33;92798.53;;;5.62;100.00
12775;BME280;6451;42.630;23.382;2023-12-22T08:46:01;92768.53;;;5.44;100.00
12775;BME280;6451;42.630;23.382;2023-12-22T08:48:27;92773.22;;;5.47;100.00
12775;BME280;6451;42.630;23.382;2023-12-22T08:50:54;92769.47;;;5.52;100.00
12775;BME280;6451;42.630;23.382;2023-12-22T08:53:22;92793.78;;;5.55;100.00
12775;BME280;6451;42.630;23.382;2023-12-22T08:55:50;92791.16;;;5.78;100.00
12775;BME280;6451;42.630;23.382;2023-12-22T08:58:17;92748.84;;;5.21;100.00
12775;BME280;6451;42.630;23.382;2023-12-22T09:00:44;92752.91;;;5.30;100.00
12775;BME280;6451;42.630;23.382;2023-12-22T09:03:11;92784.28;;;5.62;100.00
12775;BME280;6451;42.630;23.382;2023-12-22T09:05:38;92796.47;;;5.55;100.00
12775;BME280;6451;42.630;23.382;2023-12-22T09:08:05;92809.34;;;5.66;100.00
12775;BME280;6451;42.630;23.382;2023-12-22T09:10:32;92788.19;;;5.64;100.00
12775;BME280;6451;42.630;23.382;2023-12-22T09:13:00;92811.16;;;5.97;100.00
12775;BME280;6451;42.630;23.382;2023-12-22T09:15:27;92794.84;;;5.90;100.00
12775;BME280;6451;42.630;23.382;2023-12-22T09:17:54;92814.25;;;5.79;100.00
12775;BME280;6451;42.630;23.382;2023-12-22T09:20:21;92821.72;;;6.05;100.00
12775;BME280;6451;42.630;23.382;2023-12-22T09:22:48;92828.59;;;6.22;100.00
12775;BME280;6451;42.630;23.382;2023-12-22T09:25:15;92771.91;;;5.76;100.00
12775;BME280;6451;42.630;23.382;2023-12-22T09:27:42;92822.28;;;5.95;100.00
12775;BME280;6451;42.630;23.382;2023-12-22T09:30:11;92760.69;;;5.74;100.00
12775;BME280;6451;42.630;23.382;2023-12-22T09:32:38;92820.94;;;6.05;100.00
12775;BME280;6451;42.630;23.382;2023-12-22T09:35:05;92780.13;;;5.83;100.00
12775;BME280;6451;42.630;23.382;2023-12-22T09:37:33;92803.28;;;6.46;100.00
12775;BME280;6451;42.630;23.382;2023-12-22T09:40:00;92810.81;;;6.37;100.00
12775;BME280;6451;42.630;23.382;2023-12-22T09:42:27;92808.34;;;6.74;100.00
12775;BME280;6451;42.630;23.382;2023-12-22T09:44:55;92809.09;;;6.94;100.00
12775;BME280;6451;42.630;23.382;2023-12-22T09:47:27;92789.97;;;7.03;100.00
12775;BME280;6451;42.630;23.382;2023-12-22T09:49:56;92760.56;;;6.94;100.00
12775;BME280;6451;42.630;23.382;2023-12-22T09:52:24;92795.31;;;6.99;100.00
12775;BME280;6451;42.630;23.382;2023-12-22T09:54:53;92758.88;;;6.86;100.00
12775;BME280;6451;42.630;23.382;2023-12-22T09:57:21;92740.41;;;6.61;100.00
12775;BME280;6451;42.630;23.382;2023-12-22T09:59:51;92779.56;;;6.78;100.00
12775;BME280;6451;42.630;23.382;2023-12-22T10:02:18;92766.09;;;6.78;100.00
12775;BME280;6451;42.630;23.382;2023-12-22T10:04:47;92783.41;;;6.77;100.00
12775;BME280;6451;42.630;23.382;2023-12-22T10:07:14;92749.19;;;6.58;100.00
12775;BME280;6451;42.630;23.382;2023-12-22T10:09:43;92778.13;;;6.84;100.00
12775;BME280;6451;42.630;23.382;2023-12-22T10:12:13;92718.06;;;6.61;100.00
12775;BME280;6451;42.630;23.382;2023-12-22T10:14:41;92766.13;;;7.31;100.00
12775;BME280;6451;42.630;23.382;2023-12-22T10:17:08;92767.72;;;7.09;100.00
12775;BME280;6451;42.630;23.382;2023-12-22T10:19:35;92759.66;;;6.86;100.00
12775;BME280;6451;42.630;23.382;2023-12-22T10:22:03;92692.09;;;6.26;100.00
12775;BME280;6451;42.630;23.382;2023-12-22T10:24:37;92744.03;;;6.73;100.00
12775;BME280;6451;42.630;23.382;2023-12-22T10:27:04;92744.78;;;6.96;100.00
12775;BME280;6451;42.630;23.382;2023-12-22T10:29:31;92733.59;;;6.67;100.00
12775;BME280;6451;42.630;23.382;2023-12-22T10:32:00;92720.53;;;6.47;100.00
12775;BME280;6451;42.630;23.382;2023-12-22T10:34:29;92677.91;;;6.29;100.00
12775;BME280;6451;42.630;23.382;2023-12-22T10:36:56;92733.19;;;6.92;100.00
12775;BME280;6451;42.630;23.382;2023-12-22T10:39:29;92730.22;;;7.27;100.00
12775;BME280;6451;42.630;23.382;2023-12-22T10:41:56;92702.59;;;7.07;100.00
12775;BME280;6451;42.630;23.382;2023-12-22T10:44:24;92722.91;;;7.28;100.00
12775;BME280;6451;42.630;23.382;2023-12-22T10:46:52;92727.78;;;7.78;100.00
12775;BME280;6451;42.630;23.382;2023-12-22T10:49:20;92725.78;;;7.42;100.00
12775;BME280;6451;42.630;23.382;2023-12-22T10:51:47;92693.38;;;7.38;100.00
12775;BME280;6451;42.630;23.382;2023-12-22T10:54:14;92705.25;;;7.64;100.00
12775;BME280;6451;42.630;23.382;2023-12-22T10:56:42;92678.25;;;7.64;100.00
12775;BME280;6451;42.630;23.382;2023-12-22T10:59:09;92678.59;;;7.92;100.00
12775;BME280;6451;42.630;23.382;2023-12-22T11:01:37;92670.13;;;7.97;100.00
12775;BME280;6451;42.630;23.382;2023-12-22T11:04:06;92700.03;;;8.15;100.00
12775;BME280;6451;42.630;23.382;2023-12-22T11:06:37;92629.69;;;7.64;100.00
12775;BME280;6451;42.630;23.382;2023-12-22T11:09:06;92686.25;;;8.27;100.00
12775;BME280;6451;42.630;23.382;2023-12-22T11:11:34;92503.28;;;6.95;100.00
12775;BME280;6451;42.630;23.382;2023-12-22T11:14:03;92682.03;;;8.30;100.00
12775;BME280;6451;42.630;23.382;2023-12-22T11:16:32;92673.41;;;8.58;100.00
12775;BME280;6451;42.630;23.382;2023-12-22T11:19:00;92662.63;;;8.17;100.00
12775;BME280;6451;42.630;23.382;2023-12-22T11:21:27;92620.41;;;7.98;100.00
12775;BME280;6451;42.630;23.382;2023-12-22T11:23:55;92648.38;;;8.64;100.00
12775;BME280;6451;42.630;23.382;2023-12-22T11:26:24;92646.31;;;8.47;100.00
12775;BME280;6451;42.630;23.382;2023-12-22T11:28:51;92659.06;;;8.47;100.00
12775;BME280;6451;42.630;23.382;2023-12-22T11:31:20;92649.72;;;8.37;100.00
12775;BME280;6451;42.630;23.382;2023-12-22T11:33:48;92663.78;;;8.20;100.00
12775;BME280;6451;42.630;23.382;2023-12-22T11:36:16;92665.00;;;8.22;100.00
12775;BME280;6451;42.630;23.382;2023-12-22T11:38:45;92681.59;;;8.24;100.00
12775;BME280;6451;42.630;23.382;2023-12-22T11:41:18;92676.28;;;8.76;100.00
12775;BME280;6451;42.630;23.382;2023-12-22T11:43:47;92676.19;;;8.65;100.00
12775;BME280;6451;42.630;23.382;2023-12-22T11:46:16;92684.50;;;8.94;100.00
12775;BME280;6451;42.630;23.382;2023-12-22T11:48:48;92707.44;;;8.59;100.00
12775;BME280;6451;42.630;23.382;2023-12-22T11:51:16;92689.69;;;8.61;100.00
12775;BME280;6451;42.630;23.382;2023-12-22T11:53:44;92703.09;;;8.51;100.00
12775;BME280;6451;42.630;23.382;2023-12-22T11:56:12;92692.47;;;8.72;100.00
12775;BME280;6451;42.630;23.382;2023-12-22T11:58:40;92696.91;;;8.50;100.00
12775;BME280;6451;42.630;23.382;2023-12-22T12:01:09;92691.41;;;8.36;100.00
12775;BME280;6451;42.630;23.382;2023-12-22T12:03:37;92677.91;;;8.40;100.00
12775;BME280;6451;42.630;23.382;2023-12-22T12:06:14;92692.44;;;8.69;100.00
12775;BME280;6451;42.630;23.382;2023-12-22T12:08:41;92676.69;;;8.78;100.00
12775;BME280;6451;42.630;23.382;2023-12-22T12:11:08;92707.38;;;9.00;100.00
12775;BME280;6451;42.630;23.382;2023-12-22T12:13:39;92696.03;;;8.83;100.00
12775;BME280;6451;42.630;23.382;2023-12-22T12:16:08;92716.56;;;8.91;100.00
12775;BME280;6451;42.630;23.382;2023-12-22T12:18:34;92728.38;;;8.73;100.00
12775;BME280;6451;42.630;23.382;2023-12-22T12:21:02;92715.75;;;8.87;100.00
12775;BME280;6451;42.630;23.382;2023-12-22T12:23:30;92684.63;;;8.56;100.00
12775;BME280;6451;42.630;23.382;2023-12-22T12:25:57;92673.69;;;8.42;100.00
12775;BME280;6451;42.630;23.382;2023-12-22T12:28:28;92674.13;;;8.48;100.00
12775;BME280;6451;42.630;23.382;2023-12-22T12:31:00;92672.38;;;8.70;100.00
12775;BME280;6451;42.630;23.382;2023-12-22T12:33:27;92673.91;;;8.67;100.00
12775;BME280;6451;42.630;23.382;2023-12-22T12:35:56;92677.69;;;8.59;100.00
12775;BME280;6451;42.630;23.382;2023-12-22T12:38:40;92652.88;;;8.50;100.00
12775;BME280;6451;42.630;23.382;2023-12-22T12:41:09;92637.75;;;8.38;100.00
12775;BME280;6451;42.630;23.382;2023-12-22T12:43:41;92661.00;;;8.50;100.00
12775;BME280;6451;42.630;23.382;2023-12-22T12:46:08;92673.72;;;8.46;100.00
12775;BME280;6451;42.630;23.382;2023-12-22T12:48:36;92649.78;;;8.48;100.00
12775;BME280;6451;42.630;23.382;2023-12-22T12:51:03;92622.31;;;8.39;100.00
12775;BME280;6451;42.630;23.382;2023-12-22T12:53:31;92648.31;;;8.54;100.00
12775;BME280;6451;42.630;23.382;2023-12-22T12:56:00;92657.59;;;8.56;100.00
12775;BME280;6451;42.630;23.382;2023-12-22T12:58:28;92641.72;;;8.51;100.00
12775;BME280;6451;42.630;23.382;2023-12-22T13:01:05;92679.31;;;8.71;100.00
12775;BME280;6451;42.630;23.382;2023-12-22T13:03:32;92667.00;;;8.32;100.00